Time;durP1;ratioP1;P1;durP2;ratioP2;P2;SDS_P1;SDS_P2;PMS_P1;PMS_P2;Temp;Humidity;BMP_temperature;BMP_pressure;BME280_temperature;BME280_humidity;BME280_pressure;Samples;Min_cycle;Max_cycle;Signal;HPM_P1;HPM_P2
2022/04/06 00:01:16;;;;;;;18.20;11.97;;;;;;;;;;4452623;32;20390;-53
2022/04/06 00:03:43;;;;;;;21.50;12.03;;;;;;;;;;4453743;32;20306;-53
2022/04/06 00:06:09;;;;;;;21.37;10.47;;;;;;;;;;4453848;32;20402;-53
2022/04/06 00:08:35;;;;;;;16.03;10.80;;;;;;;;;;4452232;32;20224;-54
2022/04/06 00:11:00;;;;;;;22.00;11.97;;;;;;;;;;4457926;32;20480;-54
2022/04/06 00:13:26;;;;;;;25.80;12.57;;;;;;;;;;4459438;32;20349;-54
2022/04/06 00:15:51;;;;;;;20.70;9.23;;;;;;;;;;4455608;32;20278;-53
2022/04/06 00:18:17;;;;;;;16.60;10.70;;;;;;;;;;4445693;32;20252;-53
2022/04/06 00:20:42;;;;;;;19.93;10.73;;;;;;;;;;4446210;32;20719;-53
2022/04/06 00:23:08;;;;;;;19.37;8.87;;;;;;;;;;4454396;32;20286;-54
2022/04/06 00:25:34;;;;;;;15.90;9.50;;;;;;;;;;4451910;32;20403;-53
2022/04/06 00:27:59;;;;;;;21.23;12.40;;;;;;;;;;4455573;32;20558;-53
2022/04/06 00:30:25;;;;;;;20.27;10.90;;;;;;;;;;4455659;32;20381;-54
2022/04/06 00:32:50;;;;;;;19.07;11.67;;;;;;;;;;4451362;32;20892;-54
2022/04/06 00:35:28;;;;;;;18.27;11.17;;;;;;;;;;4446426;32;20515;-54
2022/04/06 00:37:54;;;;;;;21.33;11.87;;;;;;;;;;4443990;32;20315;-54
2022/04/06 00:40:19;;;;;;;15.10;9.60;;;;;;;;;;4454748;32;20283;-54
2022/04/06 00:42:46;;;;;;;18.77;11.30;;;;;;;;;;4455158;32;20833;-54
2022/04/06 00:45:12;;;;;;;18.27;11.60;;;;;;;;;;4454349;32;20291;-54
2022/04/06 00:47:38;;;;;;;21.00;12.03;;;;;;;;;;4453317;32;20299;-54
2022/04/06 00:50:04;;;;;;;24.83;13.57;;;;;;;;;;4452252;32;20308;-53
2022/04/06 00:52:30;;;;;;;18.43;11.80;;;;;;;;;;4456398;32;20235;-54
2022/04/06 00:54:56;;;;;;;22.03;12.67;;;;;;;;;;4449780;32;20385;-54
2022/04/06 00:57:22;;;;;;;24.13;14.67;;;;;;;;;;4453942;32;20228;-55
2022/04/06 00:59:49;;;;;;;17.77;11.60;;;;;;;;;;4446132;32;20688;-53
2022/04/06 01:02:14;;;;;;;19.53;11.17;;;;;;;;;;4447007;32;20715;-54
2022/04/06 01:04:40;;;;;;;18.40;11.10;;;;;;;;;;4451504;32;20331;-54
2022/04/06 01:07:05;;;;;;;18.37;9.97;;;;;;;;;;4451201;32;20338;-54
2022/04/06 01:09:31;;;;;;;23.57;14.20;;;;;;;;;;4444041;32;20349;-55
2022/04/06 01:11:58;;;;;;;29.40;14.80;;;;;;;;;;4448417;32;20307;-53
2022/04/06 01:14:24;;;;;;;13.50;8.07;;;;;;;;;;4450784;32;20535;-54
2022/04/06 01:17:00;;;;;;;16.70;8.50;;;;;;;;;;4449539;32;20625;-55
2022/04/06 01:19:33;;;;;;;11.77;7.83;;;;;;;;;;4457500;32;20331;-54
2022/04/06 01:22:00;;;;;;;11.67;8.23;;;;;;;;;;4453510;32;20769;-54
2022/04/06 01:24:26;;;;;;;15.73;9.43;;;;;;;;;;4455484;32;20390;-54
2022/04/06 01:26:51;;;;;;;22.83;12.07;;;;;;;;;;4453676;32;20642;-54
2022/04/06 01:29:17;;;;;;;20.07;13.30;;;;;;;;;;4445295;32;20728;-53
2022/04/06 01:31:42;;;;;;;20.40;11.77;;;;;;;;;;4454263;32;20248;-53
2022/04/06 01:34:07;;;;;;;27.17;12.80;;;;;;;;;;4444781;32;20273;-54
2022/04/06 01:36:33;;;;;;;21.63;11.97;;;;;;;;;;4444481;32;20412;-53
2022/04/06 01:38:58;;;;;;;16.60;10.80;;;;;;;;;;4454757;32;20413;-53
2022/04/06 01:41:30;;;;;;;19.30;10.23;;;;;;;;;;4454604;32;20392;-53
2022/04/06 01:43:56;;;;;;;15.30;8.23;;;;;;;;;;4451766;32;20327;-54
2022/04/06 01:46:21;;;;;;;20.90;10.87;;;;;;;;;;4452815;32;20254;-54
2022/04/06 01:54:15;;;;;;;18.07;8.33;;;;;;;;;;4451010;32;20580;-54
2022/04/06 01:56:40;;;;;;;15.53;9.07;;;;;;;;;;4448677;32;20320;-54
2022/04/06 01:59:06;;;;;;;20.93;10.50;;;;;;;;;;4455022;32;20664;-53
2022/04/06 02:01:32;;;;;;;14.00;10.60;;;;;;;;;;4452200;32;20314;-53
2022/04/06 02:03:59;;;;;;;19.03;10.23;;;;;;;;;;4456745;32;20265;-53
2022/04/06 02:06:25;;;;;;;16.00;9.57;;;;;;;;;;4453582;32;20630;-54
2022/04/06 02:08:51;;;;;;;23.47;11.57;;;;;;;;;;4455561;32;20379;-54
2022/04/06 02:11:16;;;;;;;18.33;11.37;;;;;;;;;;4451083;32;20374;-54
2022/04/06 02:13:42;;;;;;;19.20;12.40;;;;;;;;;;4452711;32;20228;-53
2022/04/06 02:16:07;;;;;;;21.80;13.93;;;;;;;;;;4451952;32;20338;-54
2022/04/06 02:18:33;;;;;;;24.23;13.80;;;;;;;;;;4452380;32;20236;-55
2022/04/06 02:20:58;;;;;;;24.20;14.73;;;;;;;;;;4453973;32;20527;-54
2022/04/06 02:23:23;;;;;;;21.77;11.90;;;;;;;;;;4452768;32;20342;-54
2022/04/06 02:25:49;;;;;;;29.80;14.83;;;;;;;;;;4443753;32;20433;-54
2022/04/06 02:28:14;;;;;;;29.40;15.80;;;;;;;;;;4449688;32;20312;-54
2022/04/06 02:30:40;;;;;;;37.87;18.60;;;;;;;;;;4452759;32;20676;-55
2022/04/06 02:33:05;;;;;;;31.87;20.53;;;;;;;;;;4462390;32;20361;-55
2022/04/06 02:35:30;;;;;;;28.50;17.47;;;;;;;;;;4455932;32;20276;-54
2022/04/06 02:37:56;;;;;;;25.00;16.23;;;;;;;;;;4449192;32;20342;-54
2022/04/06 02:40:21;;;;;;;28.87;14.87;;;;;;;;;;4461450;32;20346;-53
2022/04/06 02:42:47;;;;;;;33.77;16.20;;;;;;;;;;4448165;32;20307;-54
2022/04/06 02:45:13;;;;;;;38.63;19.30;;;;;;;;;;4456905;32;20383;-55
2022/04/06 02:47:38;;;;;;;30.13;18.10;;;;;;;;;;4451784;32;20562;-54
2022/04/06 02:50:05;;;;;;;27.27;16.40;;;;;;;;;;4453837;32;20355;-54
2022/04/06 02:52:31;;;;;;;28.93;16.03;;;;;;;;;;4452355;32;20378;-54
2022/04/06 02:54:56;;;;;;;20.27;12.23;;;;;;;;;;4452457;32;20297;-53
2022/04/06 02:57:22;;;;;;;22.37;11.23;;;;;;;;;;4452454;32;20212;-53
2022/04/06 02:59:47;;;;;;;18.40;11.70;;;;;;;;;;4445698;32;20770;-53
2022/04/06 03:02:13;;;;;;;16.93;10.40;;;;;;;;;;4455081;32;20584;-53
2022/04/06 03:04:38;;;;;;;22.30;11.83;;;;;;;;;;4446873;32;20410;-53
2022/04/06 03:07:04;;;;;;;16.13;12.33;;;;;;;;;;4453939;32;20390;-53
2022/04/06 03:09:29;;;;;;;29.97;12.53;;;;;;;;;;4445333;32;20354;-55
2022/04/06 03:11:55;;;;;;;38.83;22.67;;;;;;;;;;4449359;32;20296;-53
2022/04/06 03:14:20;;;;;;;21.83;15.13;;;;;;;;;;4447568;32;20723;-53
2022/04/06 03:16:45;;;;;;;20.67;13.27;;;;;;;;;;4450739;32;20291;-54
2022/04/06 03:19:11;;;;;;;23.40;12.13;;;;;;;;;;4453841;32;20333;-53
2022/04/06 03:21:36;;;;;;;25.80;13.70;;;;;;;;;;4453498;32;20670;-54
2022/04/06 03:24:02;;;;;;;25.73;14.43;;;;;;;;;;4457775;32;20696;-54
2022/04/06 03:26:27;;;;;;;22.07;13.23;;;;;;;;;;4445531;32;20685;-53
2022/04/06 03:28:53;;;;;;;26.53;13.23;;;;;;;;;;4455803;32;21174;-53
2022/04/06 03:31:18;;;;;;;24.20;13.47;;;;;;;;;;4455783;32;20617;-53
2022/04/06 03:33:44;;;;;;;23.37;12.90;;;;;;;;;;4451826;32;20695;-53
2022/04/06 03:36:09;;;;;;;22.67;12.90;;;;;;;;;;4454714;32;20652;-53
2022/04/06 03:38:35;;;;;;;28.03;14.20;;;;;;;;;;4447641;32;20239;-53
2022/04/06 03:41:00;;;;;;;26.03;13.37;;;;;;;;;;4447459;32;20611;-53
2022/04/06 03:43:26;;;;;;;21.47;12.43;;;;;;;;;;4453611;32;20349;-54
2022/04/06 03:45:51;;;;;;;19.17;12.63;;;;;;;;;;4456162;32;20379;-54
2022/04/06 03:48:17;;;;;;;20.27;12.77;;;;;;;;;;4452001;32;20244;-53
2022/04/06 03:50:42;;;;;;;20.10;12.73;;;;;;;;;;4448274;32;20283;-54
2022/04/06 03:53:07;;;;;;;17.30;12.33;;;;;;;;;;4453511;32;20224;-54
2022/04/06 03:55:33;;;;;;;19.80;13.13;;;;;;;;;;4457028;32;20313;-53
2022/04/06 03:57:59;;;;;;;22.00;14.13;;;;;;;;;;4450994;32;20869;-53
2022/04/06 04:00:24;;;;;;;23.40;13.57;;;;;;;;;;4449718;32;20349;-55
2022/04/06 04:02:50;;;;;;;22.77;13.77;;;;;;;;;;4452927;32;20784;-55
2022/04/06 04:05:15;;;;;;;45.80;23.20;;;;;;;;;;4452436;32;20455;-54
2022/04/06 04:07:43;;;;;;;28.27;16.90;;;;;;;;;;4452750;32;20395;-53
2022/04/06 04:10:09;;;;;;;46.90;21.97;;;;;;;;;;4452407;32;20220;-54
2022/04/06 04:12:35;;;;;;;41.70;22.20;;;;;;;;;;4452476;32;20537;-53
2022/04/06 04:15:02;;;;;;;41.00;19.63;;;;;;;;;;4448931;32;20776;-54
2022/04/06 04:17:28;;;;;;;32.03;19.03;;;;;;;;;;4453039;32;20242;-52
2022/04/06 04:19:53;;;;;;;30.53;17.73;;;;;;;;;;4454471;32;20283;-55
2022/04/06 04:22:19;;;;;;;30.13;16.00;;;;;;;;;;4457770;32;20319;-54
2022/04/06 04:24:44;;;;;;;27.57;15.70;;;;;;;;;;4456096;32;20288;-52
2022/04/06 04:27:10;;;;;;;33.10;17.17;;;;;;;;;;4454508;32;20246;-53
2022/04/06 04:29:35;;;;;;;26.63;15.77;;;;;;;;;;4451546;32;20335;-54
2022/04/06 04:32:01;;;;;;;39.33;16.73;;;;;;;;;;4452481;32;20291;-54
2022/04/06 04:34:26;;;;;;;31.67;17.97;;;;;;;;;;4447110;32;20303;-53
2022/04/06 04:36:53;;;;;;;39.83;19.60;;;;;;;;;;4453247;32;20283;-53
2022/04/06 04:39:18;;;;;;;42.43;20.60;;;;;;;;;;4450761;32;20303;-53
2022/04/06 04:41:45;;;;;;;57.90;25.40;;;;;;;;;;4452087;32;20299;-53
2022/04/06 04:44:11;;;;;;;49.47;22.57;;;;;;;;;;4453343;32;20316;-53
2022/04/06 04:46:36;;;;;;;37.50;19.67;;;;;;;;;;4450686;32;20294;-52
2022/04/06 04:49:02;;;;;;;43.70;22.57;;;;;;;;;;4449017;32;20239;-53
2022/04/06 04:51:28;;;;;;;43.47;24.27;;;;;;;;;;4451229;32;20209;-53
2022/04/06 04:53:57;;;;;;;44.73;26.50;;;;;;;;;;4452254;32;20319;-52
2022/04/06 04:56:28;;;;;;;52.87;28.90;;;;;;;;;;4450943;32;20335;-53
2022/04/06 04:58:54;;;;;;;45.23;27.03;;;;;;;;;;4455332;32;20270;-53
2022/04/06 05:01:20;;;;;;;64.73;28.67;;;;;;;;;;4445715;32;20240;-53
2022/04/06 05:03:47;;;;;;;51.50;26.43;;;;;;;;;;4456272;32;20470;-53
2022/04/06 05:06:12;;;;;;;61.67;31.03;;;;;;;;;;4445394;32;20262;-53
2022/04/06 05:08:38;;;;;;;59.37;31.10;;;;;;;;;;4454468;32;20233;-52
2022/04/06 05:11:03;;;;;;;52.83;26.93;;;;;;;;;;4455749;32;20272;-52
2022/04/06 05:13:29;;;;;;;39.80;24.50;;;;;;;;;;4447328;32;20423;-54
2022/04/06 05:15:54;;;;;;;57.70;28.00;;;;;;;;;;4449298;32;20341;-52
2022/04/06 05:18:19;;;;;;;72.63;35.40;;;;;;;;;;4454118;32;20573;-52
2022/04/06 05:20:45;;;;;;;63.53;26.83;;;;;;;;;;4453026;32;20378;-52
2022/04/06 05:23:11;;;;;;;50.30;29.37;;;;;;;;;;4453395;32;20307;-52
2022/04/06 05:25:36;;;;;;;61.30;33.93;;;;;;;;;;4442654;32;20315;-52
2022/04/06 05:28:02;;;;;;;37.27;21.53;;;;;;;;;;4450581;32;20303;-52
2022/04/06 05:30:29;;;;;;;34.20;19.60;;;;;;;;;;4451447;32;20326;-53
2022/04/06 05:32:56;;;;;;;41.60;21.07;;;;;;;;;;4447516;32;20228;-53
2022/04/06 05:35:24;;;;;;;36.90;19.37;;;;;;;;;;4454642;32;20766;-53
2022/04/06 05:37:49;;;;;;;33.77;20.47;;;;;;;;;;4442642;32;20450;-52
2022/04/06 05:40:19;;;;;;;43.37;20.03;;;;;;;;;;4454431;32;20279;-53
2022/04/06 05:42:45;;;;;;;31.23;17.73;;;;;;;;;;4456429;32;20312;-52
2022/04/06 05:45:11;;;;;;;41.37;19.37;;;;;;;;;;4451637;32;20295;-52
2022/04/06 05:47:37;;;;;;;28.87;19.33;;;;;;;;;;4450407;32;20262;-53
2022/04/06 05:50:04;;;;;;;35.30;19.13;;;;;;;;;;4460206;32;20211;-53
2022/04/06 05:52:30;;;;;;;31.83;18.80;;;;;;;;;;4458106;32;20220;-54
2022/04/06 05:54:56;;;;;;;32.57;18.37;;;;;;;;;;4455261;32;20333;-55
2022/04/06 05:57:21;;;;;;;34.23;18.90;;;;;;;;;;4451105;32;20288;-53
2022/04/06 05:59:46;;;;;;;47.10;19.77;;;;;;;;;;4446059;32;20326;-52
2022/04/06 06:02:13;;;;;;;42.90;22.20;;;;;;;;;;4445762;32;20662;-53
2022/04/06 06:04:39;;;;;;;48.27;22.70;;;;;;;;;;4445392;32;20322;-53
2022/04/06 06:07:05;;;;;;;41.10;21.63;;;;;;;;;;4446779;32;20562;-55
2022/04/06 06:09:31;;;;;;;45.53;22.00;;;;;;;;;;4447650;32;20239;-54
2022/04/06 06:11:57;;;;;;;47.53;22.67;;;;;;;;;;4448323;32;20817;-55
2022/04/06 06:14:22;;;;;;;47.43;22.43;;;;;;;;;;4449624;32;20228;-53
2022/04/06 06:16:49;;;;;;;37.80;20.40;;;;;;;;;;4450341;32;20668;-54
2022/04/06 06:19:15;;;;;;;45.93;22.47;;;;;;;;;;4450245;32;20236;-53
2022/04/06 06:21:41;;;;;;;42.23;22.27;;;;;;;;;;4449098;32;20205;-53
2022/04/06 06:24:06;;;;;;;41.67;21.67;;;;;;;;;;4450097;32;20346;-54
2022/04/06 06:26:33;;;;;;;39.40;21.73;;;;;;;;;;4449990;32;20255;-53
2022/04/06 06:28:59;;;;;;;37.33;19.47;;;;;;;;;;4450493;32;20400;-53
2022/04/06 06:31:25;;;;;;;33.77;19.47;;;;;;;;;;4449769;32;20538;-53
2022/04/06 06:33:51;;;;;;;32.83;17.30;;;;;;;;;;4451261;32;20335;-54
2022/04/06 06:36:17;;;;;;;33.30;18.03;;;;;;;;;;4465484;32;20315;-55
2022/04/06 06:38:42;;;;;;;24.07;14.97;;;;;;;;;;4465584;32;20223;-53
2022/04/06 06:41:08;;;;;;;38.03;16.07;;;;;;;;;;4465290;32;20611;-55
2022/04/06 06:43:33;;;;;;;33.67;17.20;;;;;;;;;;4465557;32;20706;-54
2022/04/06 06:45:59;;;;;;;25.37;16.57;;;;;;;;;;4465695;32;20351;-53
2022/04/06 06:48:25;;;;;;;34.27;17.20;;;;;;;;;;4465276;32;20244;-53
2022/04/06 06:50:50;;;;;;;33.83;16.63;;;;;;;;;;4465384;32;20622;-54
2022/04/06 06:53:16;;;;;;;30.90;17.17;;;;;;;;;;4457868;32;20254;-54
2022/04/06 06:55:41;;;;;;;25.33;17.23;;;;;;;;;;4448345;32;20312;-54
2022/04/06 06:58:07;;;;;;;35.13;16.80;;;;;;;;;;4449725;32;20557;-55
2022/04/06 07:00:32;;;;;;;38.63;16.90;;;;;;;;;;4449443;32;20292;-54
2022/04/06 07:02:58;;;;;;;34.40;17.07;;;;;;;;;;4449474;32;20219;-53
2022/04/06 07:05:24;;;;;;;26.13;15.13;;;;;;;;;;4454458;32;20861;-52
2022/04/06 07:07:52;;;;;;;25.50;14.37;;;;;;;;;;4449342;32;20240;-52
2022/04/06 07:10:18;;;;;;;28.03;15.33;;;;;;;;;;4449159;32;20209;-53
2022/04/06 07:12:43;;;;;;;29.40;16.87;;;;;;;;;;4449011;32;20273;-52
2022/04/06 07:15:09;;;;;;;28.87;17.07;;;;;;;;;;4449310;32;20307;-54
2022/04/06 07:17:34;;;;;;;29.80;15.70;;;;;;;;;;4448855;32;20689;-54
2022/04/06 07:20:00;;;;;;;24.53;13.20;;;;;;;;;;4449012;32;20672;-54
2022/04/06 07:22:25;;;;;;;29.13;13.83;;;;;;;;;;4448186;32;20347;-53
2022/04/06 07:24:51;;;;;;;17.47;12.77;;;;;;;;;;4448060;32;20360;-54
2022/04/06 07:27:16;;;;;;;22.73;14.87;;;;;;;;;;4449088;32;20351;-54
2022/04/06 07:29:43;;;;;;;22.03;14.67;;;;;;;;;;4450059;32;20314;-53
2022/04/06 07:32:08;;;;;;;30.17;14.20;;;;;;;;;;4449422;32;20720;-54
2022/04/06 07:34:34;;;;;;;26.17;14.53;;;;;;;;;;4448868;32;20287;-54
2022/04/06 07:36:59;;;;;;;26.57;14.50;;;;;;;;;;4447832;32;20688;-53
2022/04/06 07:39:27;;;;;;;23.67;14.87;;;;;;;;;;4449261;32;20238;-53
2022/04/06 07:41:52;;;;;;;23.83;15.07;;;;;;;;;;4449012;32;20239;-53
2022/04/06 07:44:18;;;;;;;27.63;15.00;;;;;;;;;;4447945;32;20229;-53
2022/04/06 07:46:43;;;;;;;33.33;15.17;;;;;;;;;;4449576;32;20209;-54
2022/04/06 07:49:09;;;;;;;24.57;13.60;;;;;;;;;;4449210;32;20391;-54
2022/04/06 07:51:36;;;;;;;27.00;14.07;;;;;;;;;;4449287;32;20204;-55
2022/04/06 07:54:02;;;;;;;19.83;12.70;;;;;;;;;;4447698;32;20240;-53
2022/04/06 07:56:27;;;;;;;25.23;13.77;;;;;;;;;;4448687;32;20545;-53
2022/04/06 07:58:53;;;;;;;26.97;16.87;;;;;;;;;;4449290;32;20240;-53
2022/04/06 08:01:18;;;;;;;23.70;13.70;;;;;;;;;;4449232;32;20320;-54
2022/04/06 08:03:44;;;;;;;25.47;14.37;;;;;;;;;;4448334;32;20279;-54
2022/04/06 08:06:09;;;;;;;25.03;13.00;;;;;;;;;;4455949;32;20319;-54
2022/04/06 08:08:34;;;;;;;22.87;13.90;;;;;;;;;;4464554;32;20567;-54
2022/04/06 08:11:00;;;;;;;31.17;14.23;;;;;;;;;;4463372;32;20278;-52
2022/04/06 08:13:25;;;;;;;19.60;12.87;;;;;;;;;;4447638;32;20355;-53
2022/04/06 08:15:51;;;;;;;25.77;13.80;;;;;;;;;;4447554;32;20288;-54
2022/04/06 08:18:16;;;;;;;18.43;10.50;;;;;;;;;;4446523;32;20330;-53
2022/04/06 08:20:42;;;;;;;16.67;11.67;;;;;;;;;;4446497;32;20303;-52
2022/04/06 08:23:08;;;;;;;20.60;12.00;;;;;;;;;;4447343;32;20454;-53
2022/04/06 08:25:33;;;;;;;22.10;13.00;;;;;;;;;;4447509;32;20283;-53
2022/04/06 08:27:59;;;;;;;22.40;10.93;;;;;;;;;;4446551;32;20327;-53
2022/04/06 08:30:24;;;;;;;16.80;10.00;;;;;;;;;;4447933;32;20362;-54
2022/04/06 08:32:50;;;;;;;18.93;9.13;;;;;;;;;;4447863;32;20232;-52
2022/04/06 08:35:17;;;;;;;16.63;8.87;;;;;;;;;;4447969;32;20334;-54
2022/04/06 08:37:43;;;;;;;8.93;7.20;;;;;;;;;;4447919;32;20232;-54
2022/04/06 08:40:10;;;;;;;14.07;7.50;;;;;;;;;;4448236;32;20275;-55
2022/04/06 08:42:37;;;;;;;9.37;6.63;;;;;;;;;;4447975;32;20223;-53
2022/04/06 08:45:04;;;;;;;11.67;7.90;;;;;;;;;;4446682;32;20197;-52
2022/04/06 08:47:31;;;;;;;12.90;7.67;;;;;;;;;;4447662;32;20232;-53
2022/04/06 08:49:57;;;;;;;12.90;7.03;;;;;;;;;;4447748;32;20219;-55
2022/04/06 08:52:23;;;;;;;13.07;7.43;;;;;;;;;;4449448;32;20208;-53
2022/04/06 08:54:48;;;;;;;15.13;8.17;;;;;;;;;;4462897;32;20396;-54
2022/04/06 08:57:14;;;;;;;12.07;7.13;;;;;;;;;;4462583;32;20213;-53
2022/04/06 08:59:39;;;;;;;10.23;6.90;;;;;;;;;;4460080;32;20647;-56
2022/04/06 09:02:05;;;;;;;14.50;7.27;;;;;;;;;;4447726;32;20205;-55
2022/04/06 09:04:35;;;;;;;13.07;6.97;;;;;;;;;;4449268;32;20387;-55
2022/04/06 09:07:07;;;;;;;10.77;5.87;;;;;;;;;;4448569;32;20736;-55
2022/04/06 09:09:35;;;;;;;22.67;7.80;;;;;;;;;;4447253;32;20239;-54
2022/04/06 09:12:08;;;;;;;13.90;6.90;;;;;;;;;;4446537;32;20733;-53
2022/04/06 09:14:34;;;;;;;15.37;7.83;;;;;;;;;;4447599;32;20256;-55
2022/04/06 09:17:05;;;;;;;10.63;6.90;;;;;;;;;;4447516;32;20244;-55
2022/04/06 09:19:31;;;;;;;10.33;6.50;;;;;;;;;;4447157;32;20525;-55
2022/04/06 09:21:56;;;;;;;11.03;5.90;;;;;;;;;;4447384;32;20228;-55
2022/04/06 09:24:24;;;;;;;17.20;5.90;;;;;;;;;;4447390;32;20243;-55
2022/04/06 09:27:01;;;;;;;12.57;6.47;;;;;;;;;;4447206;32;20769;-55
2022/04/06 09:29:27;;;;;;;14.83;5.30;;;;;;;;;;4447259;32;20315;-54
2022/04/06 09:31:53;;;;;;;11.83;5.30;;;;;;;;;;4447444;32;20227;-55
2022/04/06 09:34:23;;;;;;;7.30;4.77;;;;;;;;;;4451762;32;20367;-55
2022/04/06 09:36:56;;;;;;;11.40;6.00;;;;;;;;;;4462933;32;20224;-55
2022/04/06 09:39:42;;;;;;;14.53;5.67;;;;;;;;;;4462840;32;20605;-55
2022/04/06 09:42:08;;;;;;;5.97;4.43;;;;;;;;;;4453532;32;20592;-55
2022/04/06 09:47:39;;;;;;;5.73;3.80;;;;;;;;;;4465640;32;20308;-54
2022/04/06 09:50:19;;;;;;;6.53;4.10;;;;;;;;;;4466052;32;20308;-55
2022/04/06 09:52:45;;;;;;;7.12;3.50;;;;;;;;;;4461221;32;20300;-53
2022/04/06 09:55:13;;;;;;;10.27;2.53;;;;;;;;;;4450528;32;20313;-55
2022/04/06 09:57:44;;;;;;;5.40;3.25;;;;;;;;;;4450190;32;20541;-53
2022/04/06 10:00:13;;;;;;;6.90;3.40;;;;;;;;;;4450231;32;20501;-54
2022/04/06 10:02:40;;;;;;;4.53;2.77;;;;;;;;;;4450122;32;20268;-55
2022/04/06 10:05:10;;;;;;;4.90;3.27;;;;;;;;;;4454596;32;20212;-55
2022/04/06 10:07:38;;;;;;;5.23;3.40;;;;;;;;;;4450148;32;20355;-55
2022/04/06 10:10:05;;;;;;;7.65;3.05;;;;;;;;;;4450308;32;20640;-55
2022/04/06 10:12:31;;;;;;;4.37;2.78;;;;;;;;;;4449994;32;20262;-54
2022/04/06 10:15:00;;;;;;;6.12;3.00;;;;;;;;;;4450569;32;20676;-53
2022/04/06 10:17:27;;;;;;;9.45;3.60;;;;;;;;;;4450890;32;20220;-53
2022/04/06 10:20:02;;;;;;;10.32;2.55;;;;;;;;;;4449977;32;20246;-56
2022/04/06 10:22:39;;;;;;;5.60;2.85;;;;;;;;;;4449659;32;20235;-53
2022/04/06 10:25:10;;;;;;;13.40;3.25;;;;;;;;;;4449656;32;20230;-54
2022/04/06 10:27:42;;;;;;;3.87;2.28;;;;;;;;;;4448416;32;20245;-54
2022/04/06 10:30:17;;;;;;;8.77;3.05;;;;;;;;;;4447792;32;20659;-54
2022/04/06 10:32:48;;;;;;;5.97;2.72;;;;;;;;;;4447704;32;20244;-55
2022/04/06 10:35:24;;;;;;;4.03;2.45;;;;;;;;;;4458807;32;20216;-53
2022/04/06 10:38:09;;;;;;;5.68;2.42;;;;;;;;;;4463279;32;20311;-55
2022/04/06 10:40:44;;;;;;;3.60;2.17;;;;;;;;;;4463721;32;20592;-54
2022/04/06 10:43:33;;;;;;;4.37;2.60;;;;;;;;;;4463643;32;20386;-54
2022/04/06 10:46:00;;;;;;;6.32;2.60;;;;;;;;;;4464764;32;20294;-53
2022/04/06 10:48:26;;;;;;;5.95;3.03;;;;;;;;;;4464700;32;20364;-54
2022/04/06 10:50:52;;;;;;;6.68;2.95;;;;;;;;;;4465017;32;20374;-55
2022/04/06 10:53:20;;;;;;;7.62;3.50;;;;;;;;;;4461522;32;20762;-54
2022/04/06 10:56:03;;;;;;;6.87;2.75;;;;;;;;;;4464760;32;20265;-54
2022/04/06 10:58:48;;;;;;;7.07;2.78;;;;;;;;;;4464676;32;20228;-54
2022/04/06 11:01:18;;;;;;;15.02;3.67;;;;;;;;;;4455240;32;20212;-54
2022/04/06 11:03:58;;;;;;;6.30;3.25;;;;;;;;;;4449178;32;20384;-53
2022/04/06 11:06:59;;;;;;;10.18;3.10;;;;;;;;;;4453932;32;20261;-53
2022/04/06 11:12:19;;;;;;;6.28;2.67;;;;;;;;;;4448711;32;20227;-53
2022/04/06 11:14:50;;;;;;;7.45;3.65;;;;;;;;;;4448602;32;20320;-54
2022/04/06 11:17:44;;;;;;;8.15;3.42;;;;;;;;;;4448686;32;20221;-54
2022/04/06 11:20:28;;;;;;;6.75;3.12;;;;;;;;;;4449236;32;20410;-54
2022/04/06 11:22:55;;;;;;;6.95;3.55;;;;;;;;;;4448912;32;20229;-54
2022/04/06 11:25:26;;;;;;;8.43;4.00;;;;;;;;;;4449071;32;20724;-55
2022/04/06 11:27:54;;;;;;;3.92;2.78;;;;;;;;;;4448884;32;20297;-54
2022/04/06 11:30:23;;;;;;;5.30;3.17;;;;;;;;;;4448570;32;20683;-54
2022/04/06 11:32:54;;;;;;;8.43;3.10;;;;;;;;;;4448663;32;20538;-53
2022/04/06 11:35:20;;;;;;;5.32;2.75;;;;;;;;;;4448533;32;20307;-53
2022/04/06 11:37:49;;;;;;;3.97;2.47;;;;;;;;;;4448386;32;20303;-54
2022/04/06 11:40:20;;;;;;;4.97;2.90;;;;;;;;;;4448335;32;20319;-54
2022/04/06 11:42:49;;;;;;;5.35;2.78;;;;;;;;;;4448849;32;20217;-54
2022/04/06 11:45:26;;;;;;;8.35;2.80;;;;;;;;;;4448630;32;20251;-56
2022/04/06 11:48:05;;;;;;;6.97;3.22;;;;;;;;;;4448346;32;20236;-54
2022/04/06 11:50:32;;;;;;;7.18;2.75;;;;;;;;;;4448311;32;20274;-53
2022/04/06 11:53:06;;;;;;;6.30;3.05;;;;;;;;;;4450738;32;20246;-54
2022/04/06 11:56:00;;;;;;;6.97;3.37;;;;;;;;;;4448336;32;20265;-54
2022/04/06 11:58:36;;;;;;;7.95;2.78;;;;;;;;;;4457727;32;20375;-53
2022/04/06 12:01:10;;;;;;;4.50;2.42;;;;;;;;;;4447947;32;20464;-54
2022/04/06 12:03:37;;;;;;;9.98;3.08;;;;;;;;;;4448200;32;20310;-53
2022/04/06 12:06:05;;;;;;;6.87;3.37;;;;;;;;;;4452252;32;20201;-53
2022/04/06 12:08:34;;;;;;;9.10;3.37;;;;;;;;;;4447655;32;20232;-53
2022/04/06 12:11:00;;;;;;;7.82;3.50;;;;;;;;;;4446299;32;20410;-54
2022/04/06 12:13:37;;;;;;;6.12;3.17;;;;;;;;;;4447841;32;20398;-55
2022/04/06 12:16:04;;;;;;;5.72;2.35;;;;;;;;;;4448229;32;20260;-54
2022/04/06 12:18:30;;;;;;;3.85;2.30;;;;;;;;;;4448062;32;20320;-55
2022/04/06 12:20:56;;;;;;;13.27;3.15;;;;;;;;;;4447890;32;20575;-55
2022/04/06 12:23:24;;;;;;;4.25;2.30;;;;;;;;;;4447826;32;20243;-53
2022/04/06 12:25:50;;;;;;;5.53;3.10;;;;;;;;;;4447820;32;20625;-55
2022/04/06 12:28:21;;;;;;;14.10;4.18;;;;;;;;;;4447683;32;20293;-54
2022/04/06 12:31:03;;;;;;;6.45;3.25;;;;;;;;;;4447674;32;20263;-54
2022/04/06 12:33:44;;;;;;;5.22;2.55;;;;;;;;;;4447815;32;20301;-54
2022/04/06 12:36:33;;;;;;;9.00;2.80;;;;;;;;;;4447677;32;20305;-54
2022/04/06 12:39:01;;;;;;;7.18;3.47;;;;;;;;;;4446333;32;20300;-56
2022/04/06 12:41:29;;;;;;;5.55;3.08;;;;;;;;;;4446234;32;20343;-53
2022/04/06 12:43:56;;;;;;;6.62;2.85;;;;;;;;;;4447817;32;20273;-53
2022/04/06 12:46:34;;;;;;;3.90;2.60;;;;;;;;;;4447361;32;20327;-55
2022/04/06 12:49:19;;;;;;;4.93;2.45;;;;;;;;;;4447343;32;20258;-55
2022/04/06 12:51:45;;;;;;;4.28;2.50;;;;;;;;;;4446282;32;20653;-56
2022/04/06 12:54:12;;;;;;;4.43;2.47;;;;;;;;;;4450443;32;20224;-54
2022/04/06 12:56:38;;;;;;;8.10;3.12;;;;;;;;;;4447337;32;20209;-56
2022/04/06 12:59:10;;;;;;;5.93;2.40;;;;;;;;;;4447267;32;20256;-54
2022/04/06 13:01:46;;;;;;;5.90;2.50;;;;;;;;;;4447208;32;20621;-55
2022/04/06 13:04:12;;;;;;;8.43;2.12;;;;;;;;;;4447440;32;20582;-55
2022/04/06 13:06:38;;;;;;;3.53;2.50;;;;;;;;;;4451483;32;20859;-55
2022/04/06 13:09:03;;;;;;;8.55;3.30;;;;;;;;;;4445749;32;20258;-55
2022/04/06 13:11:29;;;;;;;4.70;1.87;;;;;;;;;;4447532;32;20307;-55
2022/04/06 13:13:54;;;;;;;6.50;2.28;;;;;;;;;;4447299;32;20228;-55
2022/04/06 13:16:20;;;;;;;5.60;2.70;;;;;;;;;;4447112;32;20661;-57
2022/04/06 13:18:46;;;;;;;4.70;2.40;;;;;;;;;;4447253;32;20311;-55
2022/04/06 13:21:11;;;;;;;5.43;2.53;;;;;;;;;;4445831;32;20341;-54
2022/04/06 13:23:37;;;;;;;7.95;2.58;;;;;;;;;;4447069;32;20275;-55
2022/04/06 13:26:03;;;;;;;5.82;2.42;;;;;;;;;;4447062;32;20347;-55
2022/04/06 13:28:29;;;;;;;6.20;2.22;;;;;;;;;;4447628;32;20406;-54
2022/04/06 13:30:57;;;;;;;5.50;2.37;;;;;;;;;;4447125;32;20287;-53
2022/04/06 13:33:23;;;;;;;5.65;2.15;;;;;;;;;;4447368;32;20466;-54
2022/04/06 13:35:50;;;;;;;3.95;2.12;;;;;;;;;;4446920;32;20303;-54
2022/04/06 13:38:15;;;;;;;6.32;2.12;;;;;;;;;;4447209;32;20251;-53
2022/04/06 13:40:41;;;;;;;5.25;3.08;;;;;;;;;;4447214;32;20306;-54
2022/04/06 13:43:06;;;;;;;6.37;2.67;;;;;;;;;;4446128;32;20236;-54
2022/04/06 13:45:32;;;;;;;3.42;2.15;;;;;;;;;;4446641;32;20299;-54
2022/04/06 13:47:57;;;;;;;7.15;2.12;;;;;;;;;;4446049;32;20236;-54
2022/04/06 13:50:24;;;;;;;4.32;2.47;;;;;;;;;;4445882;32;20626;-54
2022/04/06 13:52:49;;;;;;;5.40;2.37;;;;;;;;;;4453844;32;20307;-54
2022/04/06 13:55:21;;;;;;;9.98;2.83;;;;;;;;;;4462575;32;20290;-56
2022/04/06 13:57:50;;;;;;;5.93;2.62;;;;;;;;;;4452995;32;20248;-53
2022/04/06 14:00:17;;;;;;;3.37;2.00;;;;;;;;;;4446543;32;20625;-53
2022/04/06 14:02:43;;;;;;;4.05;2.25;;;;;;;;;;4446589;32;20252;-53
2022/04/06 14:05:09;;;;;;;5.55;2.60;;;;;;;;;;4450848;32;21101;-53
2022/04/06 14:07:34;;;;;;;6.65;2.22;;;;;;;;;;4446677;32;20251;-53
2022/04/06 14:10:00;;;;;;;3.87;2.37;;;;;;;;;;4446558;32;20283;-53
2022/04/06 14:12:26;;;;;;;3.70;2.67;;;;;;;;;;4446427;32;20441;-56
2022/04/06 14:14:52;;;;;;;11.30;2.35;;;;;;;;;;4447301;32;20433;-53
2022/04/06 14:17:17;;;;;;;13.25;2.90;;;;;;;;;;4446431;32;20710;-53
2022/04/06 14:19:43;;;;;;;5.60;2.90;;;;;;;;;;4446742;32;20303;-53
2022/04/06 14:22:08;;;;;;;7.72;3.40;;;;;;;;;;4446116;32;20664;-54
2022/04/06 14:24:34;;;;;;;2.37;1.83;;;;;;;;;;4444885;32;20641;-53
2022/04/06 14:26:59;;;;;;;4.78;2.37;;;;;;;;;;4446049;32;20326;-54
2022/04/06 14:29:25;;;;;;;6.78;2.42;;;;;;;;;;4448872;32;20679;-54
2022/04/06 14:31:50;;;;;;;3.97;1.70;;;;;;;;;;4453233;32;20204;-53
2022/04/06 14:34:16;;;;;;;6.78;2.10;;;;;;;;;;4451072;32;20660;-53
2022/04/06 14:36:41;;;;;;;6.43;2.12;;;;;;;;;;4446956;32;20258;-53
2022/04/06 14:39:07;;;;;;;3.92;2.45;;;;;;;;;;4448159;32;20630;-53